Time;durP1;ratioP1;P1;durP2;ratioP2;P2;SDS_P1;SDS_P2;PMS_P1;PMS_P2;Temp;Humidity;BMP_temperature;BMP_pressure;BME280_temperature;BME280_humidity;BME280_pressure;Samples;Min_cycle;Max_cycle;Signal;HPM_P1;HPM_P2
2022/09/16 00:01:19;;;;;;;2.72;1.40;;;10.60;99.90;;;;;;5042177;28;20060;-69
2022/09/16 00:03:46;;;;;;;7.20;1.60;;;10.60;99.90;;;;;;5021979;28;20533;-70
2022/09/16 00:06:23;;;;;;;8.88;1.88;;;10.60;99.90;;;;;;5027665;28;20037;-70
2022/09/16 00:08:50;;;;;;;6.70;1.98;;;11.00;99.90;;;;;;5023549;28;20041;-70
2022/09/16 00:11:17;;;;;;;3.30;1.70;;;10.60;99.90;;;;;;5042183;28;20102;-69
2022/09/16 00:13:44;;;;;;;7.25;1.80;;;10.70;99.90;;;;;;5039165;28;20078;-69
2022/09/16 00:16:14;;;;;;;3.15;1.50;;;10.70;99.90;;;;;;5043335;28;20037;-69
2022/09/16 00:18:40;;;;;;;6.82;1.73;;;10.70;99.90;;;;;;5036313;28;20045;-69
2022/09/16 00:21:08;;;;;;;7.43;1.98;;;10.70;99.90;;;;;;5043998;28;20045;-70
2022/09/16 00:23:34;;;;;;;4.20;1.83;;;10.70;99.90;;;;;;5039558;28;20055;-69
2022/09/16 00:26:00;;;;;;;7.13;1.80;;;10.70;99.90;;;;;;5039314;28;20045;-69
2022/09/16 00:28:25;;;;;;;4.30;1.90;;;10.70;99.90;;;;;;5037640;28;20102;-69
2022/09/16 00:30:51;;;;;;;5.28;2.55;;;10.70;99.90;;;;;;5037349;28;20038;-69
2022/09/16 00:33:18;;;;;;;3.08;1.60;;;10.80;99.90;;;;;;5038760;28;20033;-69
2022/09/16 00:35:45;;;;;;;10.85;2.20;;;10.80;99.90;;;;;;5038729;28;20038;-69
2022/09/16 00:38:11;;;;;;;6.90;2.03;;;10.80;99.90;;;;;;5026046;28;20068;-70
2022/09/16 00:40:48;;;;;;;6.10;1.88;;;10.80;99.90;;;;;;5039453;28;20045;-69
2022/09/16 00:43:15;;;;;;;6.43;1.90;;;10.80;99.90;;;;;;5043217;28;20449;-69
2022/09/16 00:45:44;;;;;;;4.55;1.85;;;10.80;99.90;;;;;;5036822;28;20521;-69
2022/09/16 00:48:15;;;;;;;15.77;2.50;;;10.80;99.90;;;;;;5038989;28;20121;-70
2022/09/16 00:50:47;;;;;;;7.20;2.03;;;10.90;99.90;;;;;;5036679;28;20037;-69
2022/09/16 00:53:33;;;;;;;4.13;2.00;;;10.80;99.90;;;;;;5036714;28;20554;-70
2022/09/16 00:56:01;;;;;;;9.30;1.92;;;10.90;99.90;;;;;;5038234;28;20299;-70
2022/09/16 00:58:36;;;;;;;4.70;1.90;;;10.90;99.90;;;;;;5038214;28;20442;-70
2022/09/16 01:01:04;;;;;;;4.50;2.00;;;10.90;99.90;;;;;;5023838;28;20077;-70
2022/09/16 01:03:37;;;;;;;8.52;2.00;;;10.90;99.90;;;;;;5039128;28;20052;-70
2022/09/16 01:06:03;;;;;;;;;;;10.90;99.90;;;;;;5021747;28;20041;-70
2022/09/16 01:08:29;;;;;;;7.93;1.73;;;10.90;99.90;;;;;;5022034;28;20357;-69
2022/09/16 01:10:55;;;;;;;5.47;1.83;;;10.90;99.90;;;;;;5042313;28;20075;-70
2022/09/16 01:13:21;;;;;;;7.20;1.85;;;11.00;99.90;;;;;;5024983;28;20047;-69
2022/09/16 01:16:07;;;;;;;11.35;2.00;;;11.00;99.90;;;;;;5037311;28;20092;-69
2022/09/16 01:18:52;;;;;;;5.57;1.55;;;11.00;99.90;;;;;;5041956;28;20513;-70
2022/09/16 01:21:37;;;;;;;5.07;1.63;;;11.00;99.90;;;;;;5040594;28;20071;-69
2022/09/16 01:24:15;;;;;;;5.65;1.73;;;11.00;99.90;;;;;;5017900;28;20041;-69
2022/09/16 01:26:57;;;;;;;4.10;1.50;;;11.00;99.90;;;;;;5043566;28;20568;-69
2022/09/16 01:29:25;;;;;;;6.18;1.70;;;11.00;99.90;;;;;;5040116;28;20493;-69
2022/09/16 01:32:29;;;;;;;4.72;1.30;;;11.00;99.90;;;;;;5040411;28;20521;-69
2022/09/16 01:35:11;;;;;;;12.63;1.95;;;11.00;99.90;;;;;;5037704;28;20052;-68
2022/09/16 01:37:43;;;;;;;9.65;1.60;;;10.90;99.90;;;;;;5036728;28;20053;-68
2022/09/16 01:40:37;;;;;;;4.53;1.48;;;10.90;99.90;;;;;;5043816;28;20103;-69
2022/09/16 01:43:10;;;;;;;6.35;1.92;;;10.90;99.90;;;;;;5037292;28;20079;-69
2022/09/16 01:45:43;;;;;;;5.82;1.88;;;10.90;99.90;;;;;;5033632;28;20549;-68
2022/09/16 01:48:37;;;;;;;6.07;1.60;;;10.90;99.90;;;;;;5041392;28;20345;-68
2022/09/16 01:51:27;;;;;;;4.22;1.52;;;10.80;99.90;;;;;;5036728;28;20167;-69
2022/09/16 01:54:07;;;;;;;4.35;1.40;;;10.80;99.90;;;;;;5037408;28;20045;-69
2022/09/16 01:56:45;;;;;;;6.68;1.58;;;10.80;99.90;;;;;;5038357;28;20045;-69
2022/09/16 01:59:48;;;;;;;3.70;1.60;;;10.80;99.90;;;;;;5033537;28;20048;-69
2022/09/16 02:02:30;;;;;;;6.72;1.40;;;10.90;99.90;;;;;;5044829;28;20041;-69
2022/09/16 02:04:59;;;;;;;3.90;1.57;;;10.90;99.90;;;;;;5039078;28;20052;-70
2022/09/16 02:07:31;;;;;;;7.47;1.98;;;10.80;99.90;;;;;;5034043;28;20037;-69
2022/09/16 02:10:07;;;;;;;5.93;1.90;;;10.80;99.90;;;;;;5040848;28;20045;-69
2022/09/16 02:12:39;;;;;;;6.88;1.90;;;10.80;99.90;;;;;;5040881;28;20038;-68
2022/09/16 02:15:08;;;;;;;8.13;1.90;;;10.80;99.90;;;;;;5034834;28;20094;-69
2022/09/16 02:17:40;;;;;;;5.60;1.92;;;10.80;99.90;;;;;;5042803;28;20051;-69
2022/09/16 02:20:16;;;;;;;5.07;2.33;;;10.80;99.90;;;;;;5057200;28;20106;-69
2022/09/16 02:22:53;;;;;;;6.28;2.28;;;10.80;99.90;;;;;;5039871;28;20049;-69
2022/09/16 02:25:21;;;;;;;7.32;2.35;;;10.80;99.90;;;;;;5018199;28;20045;-69
2022/09/16 02:27:48;;;;;;;5.30;2.08;;;10.80;99.90;;;;;;5041557;28;20553;-69
2022/09/16 02:30:20;;;;;;;9.85;2.13;;;10.70;99.90;;;;;;5040293;28;20060;-69
2022/09/16 02:32:51;;;;;;;6.13;1.90;;;10.70;99.90;;;;;;5037960;28;20116;-69
2022/09/16 02:35:19;;;;;;;4.57;1.67;;;10.70;99.90;;;;;;5037921;28;20506;-68
2022/09/16 02:37:54;;;;;;;8.25;2.17;;;10.70;99.90;;;;;;5022873;28;20061;-69
2022/09/16 02:40:25;;;;;;;4.60;1.70;;;10.60;99.90;;;;;;5036466;28;20049;-69
2022/09/16 02:42:52;;;;;;;4.20;1.53;;;10.60;99.90;;;;;;5052089;28;20052;-70
2022/09/16 02:45:22;;;;;;;4.15;2.03;;;10.60;99.90;;;;;;5019488;28;20037;-69
2022/09/16 02:48:11;;;;;;;7.03;1.77;;;10.60;99.90;;;;;;5021659;28;20033;-69
2022/09/16 02:50:53;;;;;;;6.55;2.08;;;10.60;99.90;;;;;;5044728;28;20086;-69
2022/09/16 02:53:49;;;;;;;6.85;1.67;;;10.60;99.90;;;;;;5038441;28;20064;-69
2022/09/16 02:56:30;;;;;;;6.60;2.00;;;10.60;99.90;;;;;;5042032;28;20845;-68
2022/09/16 02:58:56;;;;;;;4.05;1.60;;;10.60;99.90;;;;;;5025397;28;20394;-69
2022/09/16 03:01:23;;;;;;;4.90;1.73;;;10.60;99.90;;;;;;5038551;28;21352;-68
2022/09/16 03:03:50;;;;;;;8.40;1.85;;;10.50;99.90;;;;;;5044073;28;20041;-69
2022/09/16 03:06:19;;;;;;;8.23;1.90;;;10.50;99.90;;;;;;5044769;28;20107;-67
2022/09/16 03:08:46;;;;;;;4.88;1.70;;;10.50;99.90;;;;;;5024161;28;20033;-70
2022/09/16 03:11:38;;;;;;;6.13;1.55;;;10.50;99.90;;;;;;5039135;28;21816;-69
2022/09/16 03:14:29;;;;;;;6.32;1.77;;;10.50;99.90;;;;;;5037038;28;20052;-69
2022/09/16 03:17:07;;;;;;;5.97;1.98;;;10.50;99.90;;;;;;5039554;28;20048;-69
2022/09/16 03:19:41;;;;;;;5.53;1.85;;;10.50;99.90;;;;;;5023152;28;20049;-69
2022/09/16 03:22:45;;;;;;;7.22;2.28;;;10.50;99.90;;;;;;5024527;28;20073;-68
2022/09/16 03:25:17;;;;;;;7.45;1.85;;;10.50;99.90;;;;;;5039097;28;20049;-69
2022/09/16 03:28:10;;;;;;;5.07;1.70;;;10.50;99.90;;;;;;5040753;28;20043;-69
2022/09/16 03:30:49;;;;;;;5.00;1.75;;;10.50;99.90;;;;;;5037987;28;20067;-69
2022/09/16 03:33:30;;;;;;;5.57;1.70;;;10.50;99.90;;;;;;5027626;28;20040;-69
2022/09/16 03:35:58;;;;;;;6.05;1.88;;;10.50;99.90;;;;;;5041933;28;20391;-69
2022/09/16 03:38:25;;;;;;;11.00;2.20;;;10.50;99.90;;;;;;5040900;28;20053;-69
2022/09/16 03:40:51;;;;;;;3.85;1.85;;;10.50;99.90;;;;;;5040958;28;20120;-69
2022/09/16 03:43:17;;;;;;;5.95;1.65;;;10.50;99.90;;;;;;5025570;28;20436;-69
2022/09/16 03:45:43;;;;;;;4.05;1.90;;;10.50;99.90;;;;;;5025281;28;20091;-69
2022/09/16 03:48:11;;;;;;;4.40;2.00;;;10.50;99.90;;;;;;5041069;28;20124;-70
2022/09/16 03:50:37;;;;;;;4.43;1.80;;;10.50;99.90;;;;;;5024513;28;20037;-69
2022/09/16 03:53:03;;;;;;;9.10;2.00;;;10.50;99.90;;;;;;5030564;28;20043;-69
2022/09/16 03:55:29;;;;;;;7.30;1.70;;;10.60;99.90;;;;;;5024781;28;20086;-68
2022/09/16 03:57:55;;;;;;;6.43;1.70;;;10.50;99.90;;;;;;5051418;28;20041;-68
2022/09/16 04:00:22;;;;;;;4.63;1.70;;;10.50;99.90;;;;;;5051041;28;20041;-69
2022/09/16 04:02:48;;;;;;;5.57;2.08;;;10.50;99.90;;;;;;5048958;28;20055;-69
2022/09/16 04:05:14;;;;;;;5.60;1.50;;;10.50;99.90;;;;;;5047809;28;20506;-69
2022/09/16 04:07:40;;;;;;;7.38;2.05;;;10.50;99.90;;;;;;5026078;28;20049;-69
2022/09/16 04:10:06;;;;;;;5.18;1.60;;;10.40;99.90;;;;;;5026084;28;20059;-68
2022/09/16 04:12:33;;;;;;;10.27;2.55;;;10.40;99.90;;;;;;5043914;28;20041;-69
2022/09/16 04:15:01;;;;;;;11.25;2.00;;;10.40;99.90;;;;;;5042808;28;20375;-69
2022/09/16 04:17:31;;;;;;;6.30;1.77;;;10.30;99.90;;;;;;5039711;28;20042;-68
2022/09/16 04:19:56;;;;;;;7.28;2.17;;;10.30;99.90;;;;;;5040651;28;20036;-69
2022/09/16 04:22:22;;;;;;;3.20;1.67;;;10.30;99.90;;;;;;5010075;28;20429;-68
2022/09/16 04:24:48;;;;;;;6.60;1.90;;;10.20;99.90;;;;;;5043119;28;20039;-69
2022/09/16 04:27:13;;;;;;;4.82;1.58;;;10.20;99.90;;;;;;5025042;28;20334;-69
2022/09/16 04:29:39;;;;;;;4.93;1.80;;;10.20;99.90;;;;;;5044880;28;20036;-69
2022/09/16 04:32:05;;;;;;;4.57;1.58;;;10.10;99.90;;;;;;5027722;28;20029;-68
2022/09/16 04:34:32;;;;;;;6.57;1.67;;;10.10;99.90;;;;;;5027518;28;20147;-69
2022/09/16 04:36:58;;;;;;;3.15;1.75;;;10.10;99.90;;;;;;5025145;28;20061;-67
2022/09/16 04:39:24;;;;;;;3.60;1.50;;;10.10;99.90;;;;;;5023911;28;20502;-69
2022/09/16 04:41:50;;;;;;;9.45;1.88;;;10.00;99.90;;;;;;5040747;28;20045;-68
2022/09/16 04:44:15;;;;;;;6.88;1.92;;;10.00;99.90;;;;;;5043807;28;20482;-70
2022/09/16 04:46:42;;;;;;;4.30;2.03;;;10.00;99.90;;;;;;5042163;28;20033;-68
2022/09/16 04:49:07;;;;;;;7.25;1.90;;;10.00;99.90;;;;;;5028655;28;20045;-69
2022/09/16 04:51:40;;;;;;;8.75;2.10;;;10.00;99.90;;;;;;5039485;28;20072;-69
2022/09/16 04:54:05;;;;;;;4.10;1.45;;;10.00;99.90;;;;;;5040196;28;20048;-68
2022/09/16 04:56:32;;;;;;;5.97;2.08;;;9.90;99.90;;;;;;5033084;28;20033;-69
2022/09/16 04:59:01;;;;;;;6.35;1.50;;;9.90;99.90;;;;;;5042328;28;20556;-69
2022/09/16 05:01:30;;;;;;;7.63;2.58;;;9.90;99.90;;;;;;5039169;28;20483;-68
2022/09/16 05:03:58;;;;;;;7.28;1.80;;;9.90;99.90;;;;;;5037745;28;20131;-69
2022/09/16 05:06:26;;;;;;;5.90;1.42;;;9.90;99.90;;;;;;5027308;28;20063;-69
2022/09/16 05:08:53;;;;;;;7.28;2.13;;;9.90;99.90;;;;;;5024155;28;20033;-68
2022/09/16 05:11:22;;;;;;;6.68;1.70;;;9.90;99.90;;;;;;5028203;28;20068;-68
2022/09/16 05:13:48;;;;;;;3.42;1.75;;;9.90;99.90;;;;;;5037849;28;20041;-68
2022/09/16 05:16:19;;;;;;;5.43;1.67;;;9.90;99.90;;;;;;5026979;28;20124;-68
2022/09/16 05:18:47;;;;;;;6.65;2.58;;;9.90;99.90;;;;;;5042501;28;20036;-70
2022/09/16 05:21:16;;;;;;;4.80;1.80;;;9.80;99.90;;;;;;5024987;28;20050;-69
2022/09/16 05:23:42;;;;;;;8.43;1.88;;;9.80;99.90;;;;;;5043825;28;20476;-68
2022/09/16 05:26:30;;;;;;;13.30;2.00;;;9.80;99.90;;;;;;5038614;28;20081;-69
2022/09/16 05:29:00;;;;;;;3.33;1.73;;;9.80;99.90;;;;;;5054440;28;20512;-68
2022/09/16 05:31:29;;;;;;;4.80;1.55;;;9.80;99.90;;;;;;5024302;28;20048;-69
2022/09/16 05:34:05;;;;;;;4.95;1.98;;;9.90;99.90;;;;;;5040861;28;20064;-68
2022/09/16 05:36:33;;;;;;;8.07;1.58;;;9.80;99.90;;;;;;5019997;28;20089;-69
2022/09/16 05:39:00;;;;;;;5.40;1.80;;;9.90;99.90;;;;;;5057264;28;20056;-68
2022/09/16 05:41:26;;;;;;;5.53;1.83;;;9.90;99.90;;;;;;5039626;28;20601;-69
2022/09/16 05:43:53;;;;;;;8.48;1.73;;;9.90;99.90;;;;;;5039240;28;20036;-69
2022/09/16 05:46:23;;;;;;;6.43;1.58;;;9.90;99.90;;;;;;5053964;28;20483;-69
2022/09/16 05:48:49;;;;;;;5.13;1.48;;;9.90;99.90;;;;;;5039696;28;20449;-69
2022/09/16 05:51:18;;;;;;;5.47;1.95;;;9.90;99.90;;;;;;5037177;28;20127;-69
2022/09/16 05:53:45;;;;;;;5.03;2.05;;;9.90;99.90;;;;;;5026024;28;20044;-69
2022/09/16 05:56:18;;;;;;;7.15;1.60;;;9.90;99.90;;;;;;5025976;28;20095;-69
2022/09/16 05:58:45;;;;;;;12.27;2.35;;;9.90;99.90;;;;;;5023420;28;20040;-69
2022/09/16 06:01:14;;;;;;;3.55;1.85;;;9.90;99.90;;;;;;5040340;28;20111;-69
2022/09/16 06:03:41;;;;;;;4.25;2.10;;;9.90;99.90;;;;;;5037329;28;20590;-68
2022/09/16 06:06:30;;;;;;;5.32;2.28;;;9.90;99.90;;;;;;5045490;28;20510;-69
2022/09/16 06:08:58;;;;;;;5.18;1.80;;;9.90;99.90;;;;;;5038094;28;20037;-69
2022/09/16 06:11:25;;;;;;;3.67;1.75;;;10.00;99.90;;;;;;5040744;28;20037;-69
2022/09/16 06:13:57;;;;;;;6.05;2.15;;;10.00;99.90;;;;;;5040063;28;20423;-70
2022/09/16 06:16:24;;;;;;;7.38;1.95;;;10.00;99.90;;;;;;5039650;28;20119;-69
2022/09/16 06:18:51;;;;;;;7.57;1.80;;;10.10;99.90;;;;;;5041035;28;20057;-70
2022/09/16 06:21:17;;;;;;;7.28;2.25;;;10.20;99.90;;;;;;5039888;28;20849;-69
2022/09/16 06:23:43;;;;;;;6.82;1.90;;;10.30;99.90;;;;;;5046730;28;20181;-69
2022/09/16 06:26:14;;;;;;;9.45;1.85;;;10.40;99.90;;;;;;5028251;28;20042;-68
2022/09/16 06:28:44;;;;;;;10.60;1.98;;;10.40;99.90;;;;;;5030732;28;20480;-68
2022/09/16 06:31:15;;;;;;;6.43;1.98;;;10.40;99.90;;;;;;5027606;28;20704;-69
2022/09/16 06:33:42;;;;;;;5.97;1.75;;;10.50;99.90;;;;;;5044919;28;20044;-69
2022/09/16 06:36:11;;;;;;;4.18;2.00;;;10.50;99.90;;;;;;5041631;28;20057;-69
2022/09/16 06:38:37;;;;;;;4.57;1.85;;;10.50;99.90;;;;;;5043496;28;20418;-69
2022/09/16 06:41:05;;;;;;;3.92;1.80;;;10.50;99.90;;;;;;5041921;28;20168;-70
2022/09/16 06:43:31;;;;;;;11.77;2.03;;;10.50;99.90;;;;;;5030631;28;20037;-69
2022/09/16 06:46:21;;;;;;;7.90;1.60;;;10.50;99.90;;;;;;5010723;28;20037;-69
2022/09/16 06:48:49;;;;;;;5.15;1.77;;;10.40;99.90;;;;;;5041519;28;20542;-70
2022/09/16 06:51:25;;;;;;;6.82;1.90;;;10.40;99.90;;;;;;5027036;28;20041;-70
2022/09/16 06:53:52;;;;;;;8.93;1.75;;;10.40;99.90;;;;;;5047470;28;20090;-70
2022/09/16 06:56:20;;;;;;;9.70;1.90;;;10.40;99.90;;;;;;5025347;28;20545;-69
2022/09/16 06:58:48;;;;;;;5.80;1.75;;;10.40;99.90;;;;;;5045171;28;20076;-70
2022/09/16 07:01:16;;;;;;;9.30;1.88;;;10.40;99.90;;;;;;5054499;28;20102;-68
2022/09/16 07:03:44;;;;;;;10.35;2.35;;;10.40;99.90;;;;;;5018451;28;20134;-69
2022/09/16 07:06:11;;;;;;;7.97;1.85;;;10.40;99.90;;;;;;5038846;28;20490;-69
2022/09/16 07:08:38;;;;;;;9.73;2.00;;;10.40;99.90;;;;;;5043451;28;20048;-70
2022/09/16 07:11:10;;;;;;;5.03;2.08;;;10.50;99.90;;;;;;5042958;28;20391;-70
2022/09/16 07:13:36;;;;;;;8.98;1.65;;;10.50;99.90;;;;;;5056726;28;20045;-70
2022/09/16 07:16:08;;;;;;;8.80;1.67;;;10.60;99.90;;;;;;5027320;28;20106;-69
2022/09/16 07:18:34;;;;;;;12.40;1.77;;;10.70;99.90;;;;;;5061077;28;20490;-69
2022/09/16 07:21:05;;;;;;;11.18;2.22;;;10.70;99.90;;;;;;5022201;28;20072;-68
2022/09/16 07:23:33;;;;;;;8.70;2.28;;;10.80;99.90;;;;;;5047327;28;20375;-70
2022/09/16 07:26:20;;;;;;;11.88;3.33;;;10.90;99.90;;;;;;5038021;28;20115;-69
2022/09/16 07:28:48;;;;;;;10.32;2.08;;;11.00;99.90;;;;;;5043990;28;20069;-71
2022/09/16 07:31:25;;;;;;;6.38;1.80;;;11.10;99.90;;;;;;5045372;28;20048;-69
2022/09/16 07:33:54;;;;;;;8.80;2.00;;;11.40;99.90;;;;;;5046144;28;20033;-70
2022/09/16 07:36:25;;;;;;;8.95;2.55;;;11.60;99.90;;;;;;5047373;28;20072;-70
2022/09/16 07:38:51;;;;;;;11.52;1.90;;;11.90;99.90;;;;;;5047422;28;20485;-69
2022/09/16 07:41:23;;;;;;;6.43;2.15;;;12.10;99.90;;;;;;5044987;28;20053;-69
2022/09/16 07:43:49;;;;;;;7.93;1.67;;;12.30;99.90;;;;;;5042633;28;20516;-68
2022/09/16 07:46:17;;;;;;;7.18;1.60;;;12.40;99.90;;;;;;5028866;28;20302;-68
2022/09/16 07:48:44;;;;;;;9.55;2.20;;;12.40;99.90;;;;;;5045404;28;20120;-68
2022/09/16 07:51:13;;;;;;;11.48;1.98;;;12.50;99.90;;;;;;5042688;28;20112;-69
2022/09/16 07:53:39;;;;;;;9.40;1.52;;;12.60;99.90;;;;;;5043468;28;20083;-69
2022/09/16 07:56:13;;;;;;;8.75;1.70;;;12.60;99.90;;;;;;5028300;28;20064;-69
2022/09/16 07:58:40;;;;;;;5.03;1.48;;;12.70;99.90;;;;;;5055303;28;20037;-70
2022/09/16 08:01:07;;;;;;;7.50;2.30;;;12.80;99.90;;;;;;5020925;28;20409;-69
2022/09/16 08:03:38;;;;;;;5.65;1.50;;;12.90;99.90;;;;;;5035882;28;20056;-69
2022/09/16 08:06:06;;;;;;;9.57;2.05;;;13.00;99.90;;;;;;5052682;28;20151;-68
2022/09/16 08:08:33;;;;;;;9.68;2.15;;;13.00;99.90;;;;;;5052251;28;20047;-69
2022/09/16 08:11:00;;;;;;;8.05;1.73;;;13.10;99.90;;;;;;5035802;28;20498;-68
2022/09/16 08:13:28;;;;;;;9.82;1.90;;;13.30;99.90;;;;;;5053050;28;20568;-68
2022/09/16 08:15:54;;;;;;;6.63;1.75;;;13.30;99.90;;;;;;5052553;28;20506;-67
2022/09/16 08:18:20;;;;;;;6.43;1.67;;;13.40;99.90;;;;;;5035096;28;20071;-68
2022/09/16 08:20:46;;;;;;;6.90;1.67;;;13.50;99.90;;;;;;5035488;28;20036;-69
2022/09/16 08:23:13;;;;;;;9.73;2.10;;;13.60;99.90;;;;;;5052588;28;20045;-69
2022/09/16 08:25:41;;;;;;;7.20;2.00;;;13.60;99.90;;;;;;5052707;28;20041;-70
2022/09/16 08:28:14;;;;;;;8.75;1.63;;;13.80;99.90;;;;;;5034916;28;20037;-69
2022/09/16 08:30:41;;;;;;;13.02;2.92;;;13.90;99.90;;;;;;5048266;28;20041;-69
2022/09/16 08:33:08;;;;;;;11.52;2.10;;;14.00;99.90;;;;;;5033558;28;20733;-69
2022/09/16 08:35:34;;;;;;;11.77;2.28;;;14.10;99.90;;;;;;5033320;28;20033;-69
2022/09/16 08:38:00;;;;;;;12.73;2.30;;;14.20;99.90;;;;;;5049609;28;20425;-69
2022/09/16 08:40:31;;;;;;;11.10;2.40;;;14.30;99.90;;;;;;5032641;28;20053;-67
2022/09/16 08:43:09;;;;;;;9.52;2.20;;;14.30;99.90;;;;;;5049970;28;20383;-69
2022/09/16 08:45:55;;;;;;;5.47;1.95;;;14.30;99.90;;;;;;5049078;28;20052;-68
2022/09/16 08:48:34;;;;;;;7.15;2.13;;;14.30;99.90;;;;;;5049640;28;20043;-69
2022/09/16 08:51:01;;;;;;;7.03;1.58;;;14.50;99.90;;;;;;5049149;28;20071;-69
2022/09/16 08:53:57;;;;;;;8.15;2.25;;;14.50;99.90;;;;;;5016328;28;20075;-68
2022/09/16 08:56:26;;;;;;;12.18;2.30;;;14.70;99.90;;;;;;5033931;28;20060;-69
2022/09/16 08:59:00;;;;;;;9.05;2.28;;;14.80;99.90;;;;;;5049699;28;20053;-70
2022/09/16 09:01:36;;;;;;;11.65;1.98;;;14.80;99.90;;;;;;5033294;28;20041;-69
2022/09/16 09:04:03;;;;;;;16.48;2.45;;;14.80;99.90;;;;;;5032703;28;20041;-69
2022/09/16 09:07:03;;;;;;;8.52;2.35;;;14.80;99.90;;;;;;5030626;28;20136;-69
2022/09/16 09:10:02;;;;;;;11.43;4.55;;;14.70;99.90;;;;;;5049111;28;20068;-68
2022/09/16 09:12:38;;;;;;;8.95;2.72;;;14.70;99.90;;;;;;5049034;28;20224;-69
2022/09/16 09:15:30;;;;;;;9.50;2.38;;;14.50;99.90;;;;;;5048688;28;20048;-69
2022/09/16 09:18:01;;;;;;;11.85;3.00;;;14.30;99.90;;;;;;5049103;28;20041;-69
2022/09/16 09:20:33;;;;;;;8.10;2.27;;;14.40;99.90;;;;;;5048932;28;20098;-69
2022/09/16 09:23:04;;;;;;;13.23;2.70;;;14.60;99.90;;;;;;5032075;28;20048;-69
2022/09/16 09:26:07;;;;;;;11.52;2.08;;;14.70;99.90;;;;;;5048568;28;20040;-69
2022/09/16 09:28:44;;;;;;;5.78;1.63;;;14.80;99.90;;;;;;5048771;28;20039;-68
2022/09/16 09:31:31;;;;;;;7.07;1.75;;;14.90;99.90;;;;;;5048606;28;20040;-68
2022/09/16 09:34:14;;;;;;;8.52;1.88;;;14.90;99.90;;;;;;5048807;28;20041;-68
2022/09/16 09:36:49;;;;;;;9.02;2.30;;;15.00;99.90;;;;;;5031668;28;20096;-68
2022/09/16 09:39:29;;;;;;;9.80;1.92;;;15.20;99.90;;;;;;5048766;28;20142;-68
2022/09/16 09:42:08;;;;;;;11.27;2.08;;;15.30;99.90;;;;;;5031600;28;20128;-68
2022/09/16 09:44:43;;;;;;;7.00;1.90;;;15.40;99.90;;;;;;5048186;28;20099;-70
2022/09/16 09:47:18;;;;;;;9.80;2.50;;;15.60;99.90;;;;;;5048405;28;20040;-69
2022/09/16 09:49:57;;;;;;;8.63;1.90;;;15.70;99.90;;;;;;5048184;28;20090;-69
2022/09/16 09:52:44;;;;;;;11.25;2.00;;;15.90;99.90;;;;;;5047769;28;20037;-68
2022/09/16 09:55:20;;;;;;;7.30;1.85;;;16.00;99.90;;;;;;5048220;28;20052;-69
2022/09/16 09:57:46;;;;;;;11.70;2.58;;;16.10;99.70;;;;;;5048858;28;20071;-69
2022/09/16 10:00:16;;;;;;;8.13;1.92;;;16.20;99.90;;;;;;5048360;28;20037;-68
2022/09/16 10:02:44;;;;;;;6.32;1.85;;;16.30;99.90;;;;;;5048619;28;20044;-69
2022/09/16 10:05:27;;;;;;;13.30;2.55;;;16.40;99.90;;;;;;5048278;28;20049;-69
2022/09/16 10:07:57;;;;;;;12.60;2.03;;;16.50;98.80;;;;;;5049300;28;20047;-68
2022/09/16 10:10:25;;;;;;;8.90;1.83;;;16.60;99.90;;;;;;5048097;28;20086;-69
2022/09/16 10:12:51;;;;;;;4.78;1.60;;;16.80;99.90;;;;;;5048391;28;20485;-68
2022/09/16 10:15:27;;;;;;;10.43;1.73;;;16.70;99.10;;;;;;5048240;28;20132;-68
2022/09/16 10:17:54;;;;;;;12.18;2.38;;;16.70;95.30;;;;;;5049242;28;20033;-68
2022/09/16 10:20:22;;;;;;;9.88;2.22;;;16.60;95.50;;;;;;5059074;28;20463;-69
2022/09/16 10:23:03;;;;;;;8.77;1.92;;;16.70;96.90;;;;;;5050127;28;20060;-68
2022/09/16 10:25:31;;;;;;;9.15;2.42;;;16.80;95.30;;;;;;5043308;28;20513;-68
2022/09/16 10:28:03;;;;;;;7.60;1.83;;;16.80;96.80;;;;;;5044451;28;20841;-68
2022/09/16 10:30:45;;;;;;;7.50;2.20;;;16.90;95.60;;;;;;5019812;28;20034;-68
2022/09/16 10:33:33;;;;;;;10.80;2.10;;;17.00;96.30;;;;;;5034313;28;20042;-68
2022/09/16 10:36:16;;;;;;;4.38;1.75;;;17.10;92.80;;;;;;5040249;28;20399;-69
2022/09/16 10:38:47;;;;;;;6.88;1.67;;;17.10;93.00;;;;;;5041222;28;20053;-69
2022/09/16 10:41:22;;;;;;;6.07;1.80;;;16.90;94.20;;;;;;5013650;28;20045;-69
2022/09/16 10:43:55;;;;;;;8.45;1.65;;;16.80;91.50;;;;;;5024709;28;20041;-69
2022/09/16 10:46:21;;;;;;;10.20;1.98;;;16.70;93.90;;;;;;5033878;28;20044;-69
2022/09/16 10:48:50;;;;;;;6.82;1.40;;;16.80;94.70;;;;;;5035570;28;20491;-69
2022/09/16 10:51:28;;;;;;;7.60;1.90;;;16.90;94.30;;;;;;5035143;28;20171;-69
2022/09/16 10:53:57;;;;;;;8.98;2.05;;;17.00;94.10;;;;;;5019333;28;20065;-70
2022/09/16 10:56:28;;;;;;;9.43;1.85;;;17.20;93.90;;;;;;5033683;28;20047;-69
2022/09/16 10:59:07;;;;;;;10.25;1.83;;;17.10;93.20;;;;;;5038579;28;20108;-69
2022/09/16 11:01:57;;;;;;;12.38;2.53;;;16.90;93.40;;;;;;5034812;28;20041;-69
2022/09/16 11:04:50;;;;;;;12.05;1.98;;;17.00;94.40;;;;;;5038599;28;20099;-69
2022/09/16 11:07:26;;;;;;;9.90;1.70;;;17.00;94.50;;;;;;5020484;28;20522;-69
2022/09/16 11:10:08;;;;;;;6.53;1.50;;;17.10;95.00;;;;;;5042766;28;20064;-69
2022/09/16 11:12:55;;;;;;;8.85;2.08;;;17.10;93.60;;;;;;5023029;28;20443;-69
2022/09/16 11:15:35;;;;;;;6.85;1.80;;;17.20;94.10;;;;;;5039072;28;20092;-69
2022/09/16 11:18:17;;;;;;;6.00;1.80;;;17.20;94.20;;;;;;5042538;28;20410;-68
2022/09/16 11:20:52;;;;;;;11.90;2.10;;;17.40;94.40;;;;;;5038545;28;20063;-69
2022/09/16 11:23:32;;;;;;;9.75;1.88;;;17.40;93.40;;;;;;5040032;28;20245;-69
2022/09/16 11:26:28;;;;;;;10.00;2.17;;;17.60;94.70;;;;;;5043005;28;20041;-69
2022/09/16 11:29:25;;;;;;;9.20;2.17;;;17.90;95.30;;;;;;5044164;28;20068;-69
2022/09/16 11:31:56;;;;;;;8.75;1.83;;;18.00;93.60;;;;;;5014751;28;20073;-69
2022/09/16 11:34:24;;;;;;;5.63;1.60;;;18.10;93.90;;;;;;5040099;28;20049;-69
2022/09/16 11:37:09;;;;;;;5.95;1.55;;;17.90;92.60;;;;;;5023587;28;20053;-68
2022/09/16 11:39:45;;;;;;;6.28;1.77;;;17.60;92.20;;;;;;5059365;28;20107;-70
2022/09/16 11:42:17;;;;;;;9.57;1.85;;;17.30;92.50;;;;;;5046189;28;20095;-69
2022/09/16 11:45:13;;;;;;;4.40;1.25;;;17.10;92.70;;;;;;5037726;28;20051;-69
2022/09/16 11:48:06;;;;;;;9.20;1.70;;;17.10;93.30;;;;;;5043887;28;20049;-69
2022/09/16 11:51:07;;;;;;;8.10;1.80;;;17.00;93.40;;;;;;5040428;28;20052;-69
2022/09/16 11:53:53;;;;;;;5.13;1.40;;;16.90;94.00;;;;;;5031138;28;20041;-69
2022/09/16 11:56:33;;;;;;;7.90;1.65;;;17.10;92.90;;;;;;5049580;28;20060;-69
2022/09/16 11:59:22;;;;;;;7.03;1.75;;;17.40;92.30;;;;;;5048754;28;20099;-69
2022/09/16 12:01:52;;;;;;;5.63;1.52;;;17.60;91.00;;;;;;5047569;28;20128;-68
2022/09/16 12:04:32;;;;;;;5.20;1.27;;;17.70;89.40;;;;;;5033070;28;20033;-69
2022/09/16 12:07:05;;;;;;;8.43;1.90;;;17.50;88.90;;;;;;5033152;28;20052;-69
2022/09/16 12:09:56;;;;;;;8.68;2.28;;;17.20;89.70;;;;;;5045924;28;20128;-69
2022/09/16 12:12:51;;;;;;;8.82;1.60;;;16.80;90.90;;;;;;5050119;28;20086;-69
2022/09/16 12:15:19;;;;;;;8.45;1.60;;;16.70;90.40;;;;;;5041412;28;20057;-68
2022/09/16 12:18:01;;;;;;;4.95;1.38;;;16.50;91.20;;;;;;5044578;28;20037;-69
2022/09/16 12:20:32;;;;;;;4.95;1.40;;;16.40;90.90;;;;;;5030297;28;20047;-69
2022/09/16 12:23:08;;;;;;;5.40;1.48;;;16.20;91.00;;;;;;5032073;28;20037;-69
2022/09/16 12:25:47;;;;;;;3.35;1.60;;;16.30;91.20;;;;;;5043488;28;20041;-69
2022/09/16 12:28:25;;;;;;;5.18;1.80;;;16.60;92.10;;;;;;5046777;28;20041;-69
2022/09/16 12:31:06;;;;;;;6.20;1.45;;;16.80;92.80;;;;;;5058847;28;20049;-68
2022/09/16 12:33:42;;;;;;;8.18;1.20;;;17.20;93.00;;;;;;5045780;28;20037;-69
2022/09/16 12:36:14;;;;;;;4.57;1.33;;;17.30;90.70;;;;;;5044077;28;20057;-69
2022/09/16 12:38:40;;;;;;;8.48;1.50;;;17.20;90.30;;;;;;5041788;28;20045;-69
2022/09/16 12:41:12;;;;;;;8.82;1.60;;;17.30;92.00;;;;;;5046293;28;20033;-69
2022/09/16 12:43:53;;;;;;;6.65;1.33;;;17.30;91.50;;;;;;5043388;28;20492;-69
2022/09/16 12:46:49;;;;;;;7.18;2.30;;;17.30;91.40;;;;;;5042838;28;20045;-69
2022/09/16 12:49:42;;;;;;;7.10;1.98;;;17.10;91.50;;;;;;5043083;28;20120;-69
2022/09/16 12:52:23;;;;;;;9.32;1.70;;;17.10;92.50;;;;;;5045632;28;20043;-70
2022/09/16 12:55:31;;;;;;;14.38;3.50;;;17.20;93.10;;;;;;5032279;28;20040;-69
2022/09/16 12:58:18;;;;;;;8.20;2.17;;;17.30;93.20;;;;;;5048221;28;20036;-69
2022/09/16 13:01:11;;;;;;;6.53;2.00;;;17.40;93.30;;;;;;5046584;28;20418;-70
2022/09/16 13:03:40;;;;;;;6.22;2.00;;;17.50;93.50;;;;;;5031122;28;20048;-70
2022/09/16 13:06:33;;;;;;;4.57;1.60;;;17.70;93.50;;;;;;5048695;28;20118;-70
2022/09/16 13:09:19;;;;;;;6.20;1.80;;;17.80;93.50;;;;;;5046507;28;20041;-71
2022/09/16 13:11:57;;;;;;;7.32;2.22;;;18.00;93.30;;;;;;5047323;28;20119;-70
2022/09/16 13:14:27;;;;;;;7.90;1.98;;;18.00;92.70;;;;;;5064085;28;20051;-69
2022/09/16 13:17:01;;;;;;;8.88;2.15;;;17.80;92.20;;;;;;5046715;28;20045;-70
2022/09/16 13:19:42;;;;;;;10.18;2.38;;;17.40;92.30;;;;;;5046070;28;20041;-70